sensor_id;sensor_type;location;lat;lon;timestamp;P1;durP1;ratioP1;P2;durP2;ratioP2
577;SDS011;275;48.492;9.214;2023-06-14T00:00:00;6.70;;;5.50;;
577;SDS011;275;48.492;9.214;2023-06-14T00:02:29;5.10;;;4.60;;
577;SDS011;275;48.492;9.214;2023-06-14T00:04:55;6.93;;;5.80;;
577;SDS011;275;48.492;9.214;2023-06-14T00:07:33;5.60;;;5.10;;
577;SDS011;275;48.492;9.214;2023-06-14T00:10:01;5.57;;;5.00;;
577;SDS011;275;48.492;9.214;2023-06-14T00:12:30;6.20;;;4.90;;
577;SDS011;275;48.492;9.214;2023-06-14T00:14:57;6.90;;;5.80;;
577;SDS011;275;48.492;9.214;2023-06-14T00:17:26;6.27;;;5.67;;
577;SDS011;275;48.492;9.214;2023-06-14T00:19:55;7.60;;;5.77;;
577;SDS011;275;48.492;9.214;2023-06-14T00:22:22;7.77;;;6.90;;
577;SDS011;275;48.492;9.214;2023-06-14T00:24:50;6.93;;;6.33;;
577;SDS011;275;48.492;9.214;2023-06-14T00:27:17;8.33;;;7.50;;
577;SDS011;275;48.492;9.214;2023-06-14T00:29:45;8.83;;;7.30;;
577;SDS011;275;48.492;9.214;2023-06-14T00:32:12;9.67;;;7.67;;
577;SDS011;275;48.492;9.214;2023-06-14T00:34:38;7.30;;;6.60;;
577;SDS011;275;48.492;9.214;2023-06-14T00:37:05;10.33;;;7.73;;
577;SDS011;275;48.492;9.214;2023-06-14T00:39:33;8.80;;;7.60;;
577;SDS011;275;48.492;9.214;2023-06-14T00:42:00;7.70;;;6.90;;
577;SDS011;275;48.492;9.214;2023-06-14T00:44:27;9.20;;;6.53;;
577;SDS011;275;48.492;9.214;2023-06-14T00:46:55;9.33;;;7.20;;
577;SDS011;275;48.492;9.214;2023-06-14T00:49:22;7.77;;;7.07;;
577;SDS011;275;48.492;9.214;2023-06-14T00:51:49;7.50;;;5.67;;
577;SDS011;275;48.492;9.214;2023-06-14T00:54:16;6.53;;;5.40;;
577;SDS011;275;48.492;9.214;2023-06-14T00:56:44;7.10;;;5.10;;
577;SDS011;275;48.492;9.214;2023-06-14T00:59:11;6.67;;;5.90;;
577;SDS011;275;48.492;9.214;2023-06-14T01:01:38;6.77;;;6.10;;
577;SDS011;275;48.492;9.214;2023-06-14T01:04:06;6.20;;;5.43;;
577;SDS011;275;48.492;9.214;2023-06-14T01:06:33;5.90;;;4.77;;
577;SDS011;275;48.492;9.214;2023-06-14T01:09:09;6.30;;;5.50;;
577;SDS011;275;48.492;9.214;2023-06-14T01:11:46;7.03;;;5.50;;
577;SDS011;275;48.492;9.214;2023-06-14T01:14:20;6.10;;;5.50;;
577;SDS011;275;48.492;9.214;2023-06-14T01:16:47;5.83;;;5.23;;
577;SDS011;275;48.492;9.214;2023-06-14T01:19:19;7.33;;;5.33;;
577;SDS011;275;48.492;9.214;2023-06-14T01:21:50;5.90;;;4.67;;
577;SDS011;275;48.492;9.214;2023-06-14T01:24:19;8.30;;;5.30;;
577;SDS011;275;48.492;9.214;2023-06-14T01:26:50;5.83;;;5.30;;
577;SDS011;275;48.492;9.214;2023-06-14T01:29:20;6.07;;;5.47;;
577;SDS011;275;48.492;9.214;2023-06-14T01:31:50;6.13;;;4.90;;
577;SDS011;275;48.492;9.214;2023-06-14T01:34:17;6.07;;;4.90;;
577;SDS011;275;48.492;9.214;2023-06-14T01:36:44;6.13;;;4.90;;
577;SDS011;275;48.492;9.214;2023-06-14T01:39:13;6.00;;;5.03;;
577;SDS011;275;48.492;9.214;2023-06-14T01:41:42;7.77;;;5.17;;
577;SDS011;275;48.492;9.214;2023-06-14T01:44:11;5.10;;;4.27;;
577;SDS011;275;48.492;9.214;2023-06-14T01:46:40;6.70;;;5.20;;
577;SDS011;275;48.492;9.214;2023-06-14T01:49:08;7.33;;;4.50;;
577;SDS011;275;48.492;9.214;2023-06-14T01:51:35;6.97;;;5.00;;
577;SDS011;275;48.492;9.214;2023-06-14T01:54:01;6.30;;;5.20;;
577;SDS011;275;48.492;9.214;2023-06-14T01:56:28;6.30;;;5.10;;
577;SDS011;275;48.492;9.214;2023-06-14T01:58:57;6.17;;;5.57;;
577;SDS011;275;48.492;9.214;2023-06-14T02:01:23;7.03;;;6.27;;
577;SDS011;275;48.492;9.214;2023-06-14T02:03:51;7.33;;;6.63;;
577;SDS011;275;48.492;9.214;2023-06-14T02:06:18;9.47;;;6.20;;
577;SDS011;275;48.492;9.214;2023-06-14T02:08:45;7.00;;;6.37;;
577;SDS011;275;48.492;9.214;2023-06-14T02:11:12;8.57;;;7.77;;
577;SDS011;275;48.492;9.214;2023-06-14T02:13:39;7.73;;;6.93;;
577;SDS011;275;48.492;9.214;2023-06-14T02:16:07;8.30;;;7.50;;
577;SDS011;275;48.492;9.214;2023-06-14T02:18:34;8.30;;;7.53;;
577;SDS011;275;48.492;9.214;2023-06-14T02:21:02;8.00;;;7.30;;
577;SDS011;275;48.492;9.214;2023-06-14T02:23:29;8.23;;;6.10;;
577;SDS011;275;48.492;9.214;2023-06-14T02:25:57;6.07;;;5.47;;
577;SDS011;275;48.492;9.214;2023-06-14T02:28:23;7.97;;;6.43;;
577;SDS011;275;48.492;9.214;2023-06-14T02:30:50;6.47;;;5.60;;
577;SDS011;275;48.492;9.214;2023-06-14T02:33:18;7.07;;;5.60;;
577;SDS011;275;48.492;9.214;2023-06-14T02:35:47;7.03;;;6.33;;
577;SDS011;275;48.492;9.214;2023-06-14T02:38:13;6.07;;;5.53;;
577;SDS011;275;48.492;9.214;2023-06-14T02:40:40;7.20;;;6.17;;
577;SDS011;275;48.492;9.214;2023-06-14T02:43:07;8.23;;;6.47;;
577;SDS011;275;48.492;9.214;2023-06-14T02:45:34;9.60;;;6.70;;
577;SDS011;275;48.492;9.214;2023-06-14T02:48:01;8.17;;;6.53;;
577;SDS011;275;48.492;9.214;2023-06-14T02:50:29;7.43;;;6.70;;
577;SDS011;275;48.492;9.214;2023-06-14T02:52:57;7.90;;;7.13;;
577;SDS011;275;48.492;9.214;2023-06-14T02:55:24;7.87;;;7.10;;
577;SDS011;275;48.492;9.214;2023-06-14T02:57:51;7.43;;;6.60;;
577;SDS011;275;48.492;9.214;2023-06-14T03:00:18;7.40;;;6.73;;
577;SDS011;275;48.492;9.214;2023-06-14T03:02:45;6.33;;;5.73;;
577;SDS011;275;48.492;9.214;2023-06-14T03:05:12;8.00;;;6.70;;
577;SDS011;275;48.492;9.214;2023-06-14T03:07:40;6.47;;;5.87;;
577;SDS011;275;48.492;9.214;2023-06-14T03:10:10;5.60;;;5.00;;
577;SDS011;275;48.492;9.214;2023-06-14T03:12:38;5.90;;;5.30;;
577;SDS011;275;48.492;9.214;2023-06-14T03:15:05;5.77;;;5.17;;
577;SDS011;275;48.492;9.214;2023-06-14T03:17:32;7.30;;;5.33;;
577;SDS011;275;48.492;9.214;2023-06-14T03:20:00;6.20;;;5.60;;
577;SDS011;275;48.492;9.214;2023-06-14T03:22:28;5.63;;;4.90;;
577;SDS011;275;48.492;9.214;2023-06-14T03:24:56;9.43;;;6.10;;
577;SDS011;275;48.492;9.214;2023-06-14T03:27:24;7.10;;;6.40;;
577;SDS011;275;48.492;9.214;2023-06-14T03:29:53;7.00;;;6.30;;
577;SDS011;275;48.492;9.214;2023-06-14T03:32:20;6.93;;;5.80;;
577;SDS011;275;48.492;9.214;2023-06-14T03:34:47;5.70;;;5.10;;
577;SDS011;275;48.492;9.214;2023-06-14T03:37:14;7.03;;;5.40;;
577;SDS011;275;48.492;9.214;2023-06-14T03:39:41;7.60;;;5.77;;
577;SDS011;275;48.492;9.214;2023-06-14T03:42:12;6.57;;;5.70;;
577;SDS011;275;48.492;9.214;2023-06-14T03:44:39;6.33;;;5.73;;
577;SDS011;275;48.492;9.214;2023-06-14T03:47:06;6.70;;;5.40;;
577;SDS011;275;48.492;9.214;2023-06-14T03:49:33;6.87;;;6.27;;
577;SDS011;275;48.492;9.214;2023-06-14T03:52:01;6.43;;;5.60;;
577;SDS011;275;48.492;9.214;2023-06-14T03:54:28;6.00;;;5.40;;
577;SDS011;275;48.492;9.214;2023-06-14T03:56:57;6.83;;;5.07;;
577;SDS011;275;48.492;9.214;2023-06-14T03:59:25;6.07;;;5.47;;
577;SDS011;275;48.492;9.214;2023-06-14T04:01:53;8.70;;;5.97;;
577;SDS011;275;48.492;9.214;2023-06-14T04:04:20;7.70;;;6.87;;
577;SDS011;275;48.492;9.214;2023-06-14T04:06:53;8.17;;;7.37;;
577;SDS011;275;48.492;9.214;2023-06-14T04:09:21;8.00;;;6.47;;
577;SDS011;275;48.492;9.214;2023-06-14T04:11:49;9.00;;;7.50;;
577;SDS011;275;48.492;9.214;2023-06-14T04:14:17;7.30;;;6.53;;
577;SDS011;275;48.492;9.214;2023-06-14T04:16:45;10.67;;;7.60;;
577;SDS011;275;48.492;9.214;2023-06-14T04:19:12;6.83;;;6.23;;
577;SDS011;275;48.492;9.214;2023-06-14T04:21:39;7.53;;;6.80;;
577;SDS011;275;48.492;9.214;2023-06-14T04:24:06;7.47;;;6.77;;
577;SDS011;275;48.492;9.214;2023-06-14T04:26:37;7.80;;;7.10;;
577;SDS011;275;48.492;9.214;2023-06-14T04:29:05;7.10;;;6.40;;
577;SDS011;275;48.492;9.214;2023-06-14T04:31:32;7.33;;;6.40;;
577;SDS011;275;48.492;9.214;2023-06-14T04:34:00;9.10;;;6.83;;
577;SDS011;275;48.492;9.214;2023-06-14T04:36:30;7.27;;;6.17;;
577;SDS011;275;48.492;9.214;2023-06-14T04:38:59;7.50;;;6.80;;
577;SDS011;275;48.492;9.214;2023-06-14T04:41:28;9.97;;;6.30;;
577;SDS011;275;48.492;9.214;2023-06-14T04:43:56;8.77;;;6.27;;
577;SDS011;275;48.492;9.214;2023-06-14T04:46:26;8.93;;;6.77;;
577;SDS011;275;48.492;9.214;2023-06-14T04:48:53;7.20;;;6.40;;
577;SDS011;275;48.492;9.214;2023-06-14T04:51:23;8.20;;;6.80;;
577;SDS011;275;48.492;9.214;2023-06-14T04:53:54;7.50;;;6.80;;
577;SDS011;275;48.492;9.214;2023-06-14T04:56:23;7.80;;;6.93;;
577;SDS011;275;48.492;9.214;2023-06-14T04:58:50;10.40;;;7.50;;
577;SDS011;275;48.492;9.214;2023-06-14T05:01:18;9.30;;;7.10;;
577;SDS011;275;48.492;9.214;2023-06-14T05:03:44;10.53;;;6.63;;
577;SDS011;275;48.492;9.214;2023-06-14T05:06:14;8.53;;;7.50;;
577;SDS011;275;48.492;9.214;2023-06-14T05:08:42;6.10;;;5.50;;
577;SDS011;275;48.492;9.214;2023-06-14T05:11:09;8.30;;;7.53;;
577;SDS011;275;48.492;9.214;2023-06-14T05:13:36;7.87;;;7.03;;
577;SDS011;275;48.492;9.214;2023-06-14T05:16:02;8.20;;;6.27;;
577;SDS011;275;48.492;9.214;2023-06-14T05:18:29;10.30;;;6.47;;
577;SDS011;275;48.492;9.214;2023-06-14T05:20:59;8.13;;;6.27;;
577;SDS011;275;48.492;9.214;2023-06-14T05:23:26;6.67;;;5.97;;
577;SDS011;275;48.492;9.214;2023-06-14T05:25:54;7.70;;;5.67;;
577;SDS011;275;48.492;9.214;2023-06-14T05:28:21;7.93;;;6.10;;
577;SDS011;275;48.492;9.214;2023-06-14T05:30:48;11.43;;;6.57;;
577;SDS011;275;48.492;9.214;2023-06-14T05:33:15;7.60;;;6.40;;
577;SDS011;275;48.492;9.214;2023-06-14T05:35:42;11.57;;;6.60;;
577;SDS011;275;48.492;9.214;2023-06-14T05:38:09;7.50;;;6.50;;
577;SDS011;275;48.492;9.214;2023-06-14T05:40:36;6.90;;;6.20;;
577;SDS011;275;48.492;9.214;2023-06-14T05:43:04;7.20;;;6.50;;
577;SDS011;275;48.492;9.214;2023-06-14T05:45:31;8.20;;;6.67;;
577;SDS011;275;48.492;9.214;2023-06-14T05:47:58;8.37;;;6.50;;
577;SDS011;275;48.492;9.214;2023-06-14T05:50:25;8.10;;;7.00;;
577;SDS011;275;48.492;9.214;2023-06-14T05:52:52;7.47;;;6.70;;
577;SDS011;275;48.492;9.214;2023-06-14T05:55:19;8.73;;;6.73;;
577;SDS011;275;48.492;9.214;2023-06-14T05:57:46;7.30;;;6.47;;
577;SDS011;275;48.492;9.214;2023-06-14T06:00:16;7.50;;;6.57;;
577;SDS011;275;48.492;9.214;2023-06-14T06:02:44;7.27;;;6.57;;
577;SDS011;275;48.492;9.214;2023-06-14T06:05:12;6.53;;;5.80;;
577;SDS011;275;48.492;9.214;2023-06-14T06:07:40;7.87;;;6.53;;
577;SDS011;275;48.492;9.214;2023-06-14T06:10:09;8.30;;;7.00;;
577;SDS011;275;48.492;9.214;2023-06-14T06:12:36;7.47;;;6.60;;
577;SDS011;275;48.492;9.214;2023-06-14T06:15:03;8.70;;;7.80;;
577;SDS011;275;48.492;9.214;2023-06-14T06:17:32;7.30;;;6.20;;
577;SDS011;275;48.492;9.214;2023-06-14T06:19:59;9.50;;;6.53;;
577;SDS011;275;48.492;9.214;2023-06-14T06:22:26;9.33;;;7.30;;
577;SDS011;275;48.492;9.214;2023-06-14T06:24:53;7.40;;;6.60;;
577;SDS011;275;48.492;9.214;2023-06-14T06:27:19;7.73;;;6.20;;
577;SDS011;275;48.492;9.214;2023-06-14T06:29:46;7.37;;;6.43;;
577;SDS011;275;48.492;9.214;2023-06-14T06:32:13;10.67;;;7.30;;
577;SDS011;275;48.492;9.214;2023-06-14T06:34:41;9.33;;;6.60;;
577;SDS011;275;48.492;9.214;2023-06-14T06:37:08;7.60;;;6.90;;
577;SDS011;275;48.492;9.214;2023-06-14T06:39:35;9.73;;;8.20;;
577;SDS011;275;48.492;9.214;2023-06-14T06:42:02;8.03;;;7.23;;
577;SDS011;275;48.492;9.214;2023-06-14T06:44:30;8.40;;;6.70;;
577;SDS011;275;48.492;9.214;2023-06-14T06:46:57;7.70;;;6.77;;
577;SDS011;275;48.492;9.214;2023-06-14T06:49:24;7.77;;;6.80;;
577;SDS011;275;48.492;9.214;2023-06-14T06:52:01;8.43;;;7.50;;
577;SDS011;275;48.492;9.214;2023-06-14T06:54:29;8.07;;;6.57;;
577;SDS011;275;48.492;9.214;2023-06-14T06:56:56;7.77;;;6.97;;
577;SDS011;275;48.492;9.214;2023-06-14T06:59:23;8.20;;;7.47;;
577;SDS011;275;48.492;9.214;2023-06-14T07:01:50;9.13;;;7.37;;
577;SDS011;275;48.492;9.214;2023-06-14T07:04:17;8.10;;;7.30;;
577;SDS011;275;48.492;9.214;2023-06-14T07:06:45;8.43;;;7.60;;
577;SDS011;275;48.492;9.214;2023-06-14T07:09:14;8.90;;;8.10;;
577;SDS011;275;48.492;9.214;2023-06-14T07:11:42;8.73;;;7.83;;
577;SDS011;275;48.492;9.214;2023-06-14T07:14:10;9.93;;;7.73;;
577;SDS011;275;48.492;9.214;2023-06-14T07:16:37;8.30;;;7.10;;
577;SDS011;275;48.492;9.214;2023-06-14T07:19:04;9.13;;;7.47;;
577;SDS011;275;48.492;9.214;2023-06-14T07:21:31;9.63;;;7.53;;
577;SDS011;275;48.492;9.214;2023-06-14T07:23:58;12.30;;;8.20;;
577;SDS011;275;48.492;9.214;2023-06-14T07:26:26;8.07;;;6.07;;
577;SDS011;275;48.492;9.214;2023-06-14T07:28:53;7.70;;;6.30;;
577;SDS011;275;48.492;9.214;2023-06-14T07:31:19;8.00;;;6.17;;
577;SDS011;275;48.492;9.214;2023-06-14T07:33:46;8.30;;;5.83;;
577;SDS011;275;48.492;9.214;2023-06-14T07:36:13;7.83;;;5.40;;
577;SDS011;275;48.492;9.214;2023-06-14T07:38:40;7.33;;;6.17;;
577;SDS011;275;48.492;9.214;2023-06-14T07:41:07;6.07;;;4.90;;
577;SDS011;275;48.492;9.214;2023-06-14T07:43:35;7.33;;;5.57;;
577;SDS011;275;48.492;9.214;2023-06-14T07:46:02;8.53;;;5.60;;
577;SDS011;275;48.492;9.214;2023-06-14T07:48:29;6.30;;;4.70;;
577;SDS011;275;48.492;9.214;2023-06-14T07:50:56;6.07;;;5.47;;
577;SDS011;275;48.492;9.214;2023-06-14T07:53:22;5.60;;;4.97;;
577;SDS011;275;48.492;9.214;2023-06-14T07:55:51;7.53;;;5.60;;
577;SDS011;275;48.492;9.214;2023-06-14T07:58:17;6.77;;;5.30;;
577;SDS011;275;48.492;9.214;2023-06-14T08:00:46;7.47;;;5.67;;
577;SDS011;275;48.492;9.214;2023-06-14T08:03:13;7.20;;;5.70;;
577;SDS011;275;48.492;9.214;2023-06-14T08:05:39;8.63;;;6.10;;
577;SDS011;275;48.492;9.214;2023-06-14T08:08:06;7.50;;;5.57;;
577;SDS011;275;48.492;9.214;2023-06-14T08:10:33;8.53;;;6.57;;
577;SDS011;275;48.492;9.214;2023-06-14T08:13:00;11.53;;;5.90;;
577;SDS011;275;48.492;9.214;2023-06-14T08:15:27;9.33;;;6.40;;
577;SDS011;275;48.492;9.214;2023-06-14T08:17:55;7.33;;;6.23;;
577;SDS011;275;48.492;9.214;2023-06-14T08:20:22;7.00;;;6.30;;
577;SDS011;275;48.492;9.214;2023-06-14T08:22:49;13.87;;;6.70;;
577;SDS011;275;48.492;9.214;2023-06-14T08:25:20;7.23;;;5.50;;
577;SDS011;275;48.492;9.214;2023-06-14T08:27:47;7.57;;;5.77;;
577;SDS011;275;48.492;9.214;2023-06-14T08:30:14;7.00;;;5.20;;
577;SDS011;275;48.492;9.214;2023-06-14T08:32:42;7.10;;;6.40;;
577;SDS011;275;48.492;9.214;2023-06-14T08:35:10;7.20;;;5.60;;
577;SDS011;275;48.492;9.214;2023-06-14T08:37:38;9.67;;;5.83;;
577;SDS011;275;48.492;9.214;2023-06-14T08:40:07;7.10;;;4.83;;
577;SDS011;275;48.492;9.214;2023-06-14T08:42:45;5.60;;;5.00;;
577;SDS011;275;48.492;9.214;2023-06-14T08:45:16;7.27;;;5.50;;
577;SDS011;275;48.492;9.214;2023-06-14T08:47:43;6.10;;;5.50;;
577;SDS011;275;48.492;9.214;2023-06-14T08:50:12;6.47;;;5.73;;
577;SDS011;275;48.492;9.214;2023-06-14T08:52:41;8.33;;;5.70;;
577;SDS011;275;48.492;9.214;2023-06-14T08:55:15;5.77;;;4.83;;
577;SDS011;275;48.492;9.214;2023-06-14T08:57:45;5.60;;;4.50;;
577;SDS011;275;48.492;9.214;2023-06-14T09:00:14;7.63;;;5.33;;
577;SDS011;275;48.492;9.214;2023-06-14T09:02:42;8.20;;;5.20;;
577;SDS011;275;48.492;9.214;2023-06-14T09:05:09;8.43;;;5.73;;
577;SDS011;275;48.492;9.214;2023-06-14T09:07:40;8.93;;;5.47;;
577;SDS011;275;48.492;9.214;2023-06-14T09:10:08;8.70;;;5.63;;
577;SDS011;275;48.492;9.214;2023-06-14T09:12:36;6.97;;;4.67;;
577;SDS011;275;48.492;9.214;2023-06-14T09:15:04;5.67;;;4.87;;
577;SDS011;275;48.492;9.214;2023-06-14T09:17:34;6.00;;;5.20;;
577;SDS011;275;48.492;9.214;2023-06-14T09:20:01;7.23;;;5.17;;
577;SDS011;275;48.492;9.214;2023-06-14T09:22:34;8.97;;;6.30;;
577;SDS011;275;48.492;9.214;2023-06-14T09:25:02;5.87;;;5.17;;
577;SDS011;275;48.492;9.214;2023-06-14T09:27:30;4.90;;;4.40;;
577;SDS011;275;48.492;9.214;2023-06-14T09:29:57;5.73;;;5.13;;
577;SDS011;275;48.492;9.214;2023-06-14T09:32:24;5.60;;;5.00;;
577;SDS011;275;48.492;9.214;2023-06-14T09:34:51;7.60;;;5.20;;
577;SDS011;275;48.492;9.214;2023-06-14T09:37:28;7.70;;;5.60;;
577;SDS011;275;48.492;9.214;2023-06-14T09:39:56;7.10;;;4.90;;
577;SDS011;275;48.492;9.214;2023-06-14T09:42:24;6.93;;;4.63;;
577;SDS011;275;48.492;9.214;2023-06-14T09:44:53;6.00;;;5.07;;
577;SDS011;275;48.492;9.214;2023-06-14T09:47:21;7.90;;;5.17;;
577;SDS011;275;48.492;9.214;2023-06-14T09:49:49;4.80;;;4.00;;
577;SDS011;275;48.492;9.214;2023-06-14T09:52:17;6.07;;;5.10;;
577;SDS011;275;48.492;9.214;2023-06-14T09:54:46;6.90;;;4.60;;
577;SDS011;275;48.492;9.214;2023-06-14T09:57:15;10.80;;;5.37;;
577;SDS011;275;48.492;9.214;2023-06-14T09:59:44;4.87;;;4.17;;
577;SDS011;275;48.492;9.214;2023-06-14T10:02:14;5.73;;;4.67;;
577;SDS011;275;48.492;9.214;2023-06-14T10:04:50;7.60;;;5.17;;
577;SDS011;275;48.492;9.214;2023-06-14T10:07:22;5.63;;;5.13;;
577;SDS011;275;48.492;9.214;2023-06-14T10:09:52;5.90;;;4.67;;
577;SDS011;275;48.492;9.214;2023-06-14T10:12:19;5.83;;;3.90;;
577;SDS011;275;48.492;9.214;2023-06-14T10:14:49;6.50;;;4.67;;
577;SDS011;275;48.492;9.214;2023-06-14T10:17:20;6.03;;;4.77;;
577;SDS011;275;48.492;9.214;2023-06-14T10:19:54;6.67;;;4.63;;
577;SDS011;275;48.492;9.214;2023-06-14T10:22:30;5.57;;;4.30;;
577;SDS011;275;48.492;9.214;2023-06-14T10:25:01;7.00;;;5.17;;
577;SDS011;275;48.492;9.214;2023-06-14T10:27:32;6.63;;;5.27;;
577;SDS011;275;48.492;9.214;2023-06-14T10:30:05;6.70;;;5.03;;
577;SDS011;275;48.492;9.214;2023-06-14T10:32:33;5.27;;;4.70;;
577;SDS011;275;48.492;9.214;2023-06-14T10:35:01;8.17;;;4.70;;
577;SDS011;275;48.492;9.214;2023-06-14T10:37:31;6.07;;;4.53;;
577;SDS011;275;48.492;9.214;2023-06-14T10:39:58;8.80;;;4.67;;
577;SDS011;275;48.492;9.214;2023-06-14T10:42:27;8.37;;;4.90;;
577;SDS011;275;48.492;9.214;2023-06-14T10:44:57;5.80;;;4.43;;
577;SDS011;275;48.492;9.214;2023-06-14T10:47:29;6.23;;;4.40;;
577;SDS011;275;48.492;9.214;2023-06-14T10:49:58;7.50;;;5.27;;
577;SDS011;275;48.492;9.214;2023-06-14T10:52:32;5.90;;;5.17;;
577;SDS011;275;48.492;9.214;2023-06-14T10:55:01;6.73;;;4.83;;
577;SDS011;275;48.492;9.214;2023-06-14T10:57:31;5.13;;;4.20;;
577;SDS011;275;48.492;9.214;2023-06-14T10:59:58;5.60;;;4.90;;
577;SDS011;275;48.492;9.214;2023-06-14T11:02:40;6.03;;;4.97;;
577;SDS011;275;48.492;9.214;2023-06-14T11:05:16;6.43;;;4.80;;
577;SDS011;275;48.492;9.214;2023-06-14T11:07:53;5.20;;;4.20;;
577;SDS011;275;48.492;9.214;2023-06-14T11:10:30;5.00;;;4.20;;
577;SDS011;275;48.492;9.214;2023-06-14T11:13:02;5.30;;;4.60;;
577;SDS011;275;48.492;9.214;2023-06-14T11:15:29;6.23;;;5.23;;
577;SDS011;275;48.492;9.214;2023-06-14T11:17:58;4.93;;;4.43;;
577;SDS011;275;48.492;9.214;2023-06-14T11:20:29;5.10;;;4.60;;
577;SDS011;275;48.492;9.214;2023-06-14T11:22:57;6.43;;;4.60;;
577;SDS011;275;48.492;9.214;2023-06-14T11:25:24;5.90;;;4.47;;
577;SDS011;275;48.492;9.214;2023-06-14T11:27:54;5.93;;;4.60;;
577;SDS011;275;48.492;9.214;2023-06-14T11:30:22;6.37;;;4.83;;
577;SDS011;275;48.492;9.214;2023-06-14T11:32:50;6.60;;;4.63;;
577;SDS011;275;48.492;9.214;2023-06-14T11:35:20;5.20;;;4.70;;
577;SDS011;275;48.492;9.214;2023-06-14T11:37:49;4.90;;;4.40;;
577;SDS011;275;48.492;9.214;2023-06-14T11:40:20;5.60;;;3.90;;
577;SDS011;275;48.492;9.214;2023-06-14T11:42:50;8.30;;;4.87;;
577;SDS011;275;48.492;9.214;2023-06-14T11:45:24;4.30;;;3.83;;
577;SDS011;275;48.492;9.214;2023-06-14T11:47:53;5.47;;;4.17;;
577;SDS011;275;48.492;9.214;2023-06-14T11:50:23;10.17;;;5.00;;
577;SDS011;275;48.492;9.214;2023-06-14T11:52:52;6.53;;;4.57;;
577;SDS011;275;48.492;9.214;2023-06-14T11:55:19;5.80;;;4.63;;
577;SDS011;275;48.492;9.214;2023-06-14T11:57:46;10.50;;;5.17;;
577;SDS011;275;48.492;9.214;2023-06-14T12:00:14;6.10;;;4.60;;
577;SDS011;275;48.492;9.214;2023-06-14T12:02:42;5.17;;;4.67;;
577;SDS011;275;48.492;9.214;2023-06-14T12:05:20;7.43;;;5.33;;
577;SDS011;275;48.492;9.214;2023-06-14T12:07:49;6.50;;;4.50;;
577;SDS011;275;48.492;9.214;2023-06-14T12:10:18;7.07;;;4.83;;
577;SDS011;275;48.492;9.214;2023-06-14T12:12:45;5.87;;;4.57;;
577;SDS011;275;48.492;9.214;2023-06-14T12:15:12;7.13;;;5.53;;
577;SDS011;275;48.492;9.214;2023-06-14T12:17:39;5.50;;;4.70;;
577;SDS011;275;48.492;9.214;2023-06-14T12:20:09;5.90;;;4.90;;
577;SDS011;275;48.492;9.214;2023-06-14T12:22:39;5.60;;;5.10;;
577;SDS011;275;48.492;9.214;2023-06-14T12:25:18;6.03;;;5.10;;
577;SDS011;275;48.492;9.214;2023-06-14T12:27:52;5.10;;;4.60;;
577;SDS011;275;48.492;9.214;2023-06-14T12:30:19;6.80;;;5.23;;
577;SDS011;275;48.492;9.214;2023-06-14T12:32:46;7.00;;;5.60;;
577;SDS011;275;48.492;9.214;2023-06-14T12:35:13;6.27;;;5.67;;
577;SDS011;275;48.492;9.214;2023-06-14T12:37:40;6.27;;;5.60;;
577;SDS011;275;48.492;9.214;2023-06-14T12:40:07;8.33;;;5.43;;
577;SDS011;275;48.492;9.214;2023-06-14T12:42:37;7.57;;;5.67;;
577;SDS011;275;48.492;9.214;2023-06-14T12:45:04;7.03;;;5.47;;
577;SDS011;275;48.492;9.214;2023-06-14T12:47:32;7.60;;;6.10;;
577;SDS011;275;48.492;9.214;2023-06-14T12:49:59;6.40;;;5.00;;
577;SDS011;275;48.492;9.214;2023-06-14T12:52:26;7.60;;;5.87;;
577;SDS011;275;48.492;9.214;2023-06-14T12:54:53;6.30;;;5.40;;
577;SDS011;275;48.492;9.214;2023-06-14T12:57:20;8.30;;;5.80;;
577;SDS011;275;48.492;9.214;2023-06-14T12:59:48;9.57;;;5.40;;
577;SDS011;275;48.492;9.214;2023-06-14T13:02:16;8.13;;;6.30;;
577;SDS011;275;48.492;9.214;2023-06-14T13:04:43;6.47;;;5.70;;
577;SDS011;275;48.492;9.214;2023-06-14T13:07:10;6.43;;;5.83;;
577;SDS011;275;48.492;9.214;2023-06-14T13:09:37;7.57;;;6.17;;
577;SDS011;275;48.492;9.214;2023-06-14T13:12:04;8.80;;;6.80;;
577;SDS011;275;48.492;9.214;2023-06-14T13:14:31;40.93;;;11.53;;
577;SDS011;275;48.492;9.214;2023-06-14T13:17:00;8.13;;;6.50;;
577;SDS011;275;48.492;9.214;2023-06-14T13:19:27;7.13;;;6.53;;
577;SDS011;275;48.492;9.214;2023-06-14T13:21:53;7.00;;;6.30;;
577;SDS011;275;48.492;9.214;2023-06-14T13:24:22;7.20;;;6.13;;
577;SDS011;275;48.492;9.214;2023-06-14T13:26:50;6.17;;;5.43;;
577;SDS011;275;48.492;9.214;2023-06-14T13:29:17;11.27;;;6.23;;
577;SDS011;275;48.492;9.214;2023-06-14T13:31:44;6.97;;;6.20;;
577;SDS011;275;48.492;9.214;2023-06-14T13:34:12;6.53;;;5.40;;
577;SDS011;275;48.492;9.214;2023-06-14T13:36:39;8.03;;;5.83;;
577;SDS011;275;48.492;9.214;2023-06-14T13:39:06;6.53;;;5.83;;
577;SDS011;275;48.492;9.214;2023-06-14T13:41:32;6.80;;;5.60;;
577;SDS011;275;48.492;9.214;2023-06-14T13:44:00;7.47;;;5.80;;
577;SDS011;275;48.492;9.214;2023-06-14T13:46:29;6.90;;;5.47;;
577;SDS011;275;48.492;9.214;2023-06-14T13:48:56;6.63;;;6.03;;
577;SDS011;275;48.492;9.214;2023-06-14T13:51:24;7.10;;;6.40;;
577;SDS011;275;48.492;9.214;2023-06-14T13:53:52;6.77;;;6.10;;
577;SDS011;275;48.492;9.214;2023-06-14T13:56:20;6.73;;;5.80;;
577;SDS011;275;48.492;9.214;2023-06-14T13:58:47;7.47;;;6.07;;
577;SDS011;275;48.492;9.214;2023-06-14T14:01:14;7.60;;;5.90;;
577;SDS011;275;48.492;9.214;2023-06-14T14:03:43;7.30;;;6.60;;
577;SDS011;275;48.492;9.214;2023-06-14T14:06:11;6.17;;;5.57;;
577;SDS011;275;48.492;9.214;2023-06-14T14:08:39;6.50;;;5.83;;
577;SDS011;275;48.492;9.214;2023-06-14T14:11:06;6.47;;;5.87;;
577;SDS011;275;48.492;9.214;2023-06-14T14:13:33;5.73;;;5.17;;
577;SDS011;275;48.492;9.214;2023-06-14T14:16:01;6.20;;;5.60;;
577;SDS011;275;48.492;9.214;2023-06-14T14:18:28;6.63;;;5.10;;
577;SDS011;275;48.492;9.214;2023-06-14T14:20:55;8.37;;;5.70;;
577;SDS011;275;48.492;9.214;2023-06-14T14:23:23;6.53;;;5.87;;
577;SDS011;275;48.492;9.214;2023-06-14T14:25:51;6.73;;;6.13;;
577;SDS011;275;48.492;9.214;2023-06-14T14:28:18;7.17;;;5.80;;
577;SDS011;275;48.492;9.214;2023-06-14T14:30:45;5.90;;;5.33;;
577;SDS011;275;48.492;9.214;2023-06-14T14:33:13;9.27;;;6.50;;
577;SDS011;275;48.492;9.214;2023-06-14T14:35:41;7.83;;;5.63;;
577;SDS011;275;48.492;9.214;2023-06-14T14:38:09;6.93;;;5.93;;
577;SDS011;275;48.492;9.214;2023-06-14T14:40:37;7.70;;;6.47;;
577;SDS011;275;48.492;9.214;2023-06-14T14:43:06;6.67;;;6.07;;
577;SDS011;275;48.492;9.214;2023-06-14T14:45:32;7.20;;;5.67;;
577;SDS011;275;48.492;9.214;2023-06-14T14:48:00;7.80;;;5.73;;
577;SDS011;275;48.492;9.214;2023-06-14T14:50:28;7.43;;;6.63;;
577;SDS011;275;48.492;9.214;2023-06-14T14:52:55;6.90;;;5.60;;
577;SDS011;275;48.492;9.214;2023-06-14T14:55:22;8.20;;;5.70;;
577;SDS011;275;48.492;9.214;2023-06-14T14:57:49;7.97;;;5.70;;
577;SDS011;275;48.492;9.214;2023-06-14T15:00:18;7.03;;;6.03;;
577;SDS011;275;48.492;9.214;2023-06-14T15:02:45;6.23;;;5.50;;
577;SDS011;275;48.492;9.214;2023-06-14T15:05:11;6.33;;;5.70;;
577;SDS011;275;48.492;9.214;2023-06-14T15:07:38;6.30;;;5.33;;
577;SDS011;275;48.492;9.214;2023-06-14T15:10:06;7.13;;;5.57;;
577;SDS011;275;48.492;9.214;2023-06-14T15:12:34;10.50;;;6.10;;
577;SDS011;275;48.492;9.214;2023-06-14T15:15:01;5.93;;;5.10;;
577;SDS011;275;48.492;9.214;2023-06-14T15:17:30;6.17;;;5.30;;
577;SDS011;275;48.492;9.214;2023-06-14T15:19:57;6.47;;;5.87;;
577;SDS011;275;48.492;9.214;2023-06-14T15:22:24;7.20;;;5.93;;
577;SDS011;275;48.492;9.214;2023-06-14T15:24:51;6.63;;;6.00;;
577;SDS011;275;48.492;9.214;2023-06-14T15:27:18;7.50;;;6.10;;
577;SDS011;275;48.492;9.214;2023-06-14T15:29:45;6.50;;;5.80;;
577;SDS011;275;48.492;9.214;2023-06-14T15:32:12;7.10;;;5.80;;
577;SDS011;275;48.492;9.214;2023-06-14T15:34:40;5.90;;;5.20;;
577;SDS011;275;48.492;9.214;2023-06-14T15:37:07;9.60;;;6.10;;
577;SDS011;275;48.492;9.214;2023-06-14T15:39:34;7.33;;;5.87;;
577;SDS011;275;48.492;9.214;2023-06-14T15:42:02;6.00;;;5.13;;
577;SDS011;275;48.492;9.214;2023-06-14T15:44:29;6.73;;;5.67;;
577;SDS011;275;48.492;9.214;2023-06-14T15:46:56;5.57;;;5.00;;
577;SDS011;275;48.492;9.214;2023-06-14T15:49:23;7.80;;;5.67;;